AirNav   Pilot Hours Calculator
 
 1512 users online  

2FA8 Central Florida Regional Hospital Heliport
Sanford, Florida, USA

GOING TO SANFORD?


FAA INFORMATION EFFECTIVE 02 JANUARY 2020

Location

FAA Identifier: 2FA8
Lat/Long: 28-48-49.2500N 081-17-01.4300W
28-48.820833N 081-17.023833W
28.8136806,-81.2837306
(estimated)
Elevation: 17 ft. / 5 m (estimated)
From city: 4 miles E of SANFORD, FL
Time zone: UTC -5 (UTC -4 during Daylight Saving Time)
Zip code: 32771

Heliport Operations

Heliport use: Private use, MEDICAL USE.
Activation date: 08/2007
Control tower: no
ARTCC: JACKSONVILLE CENTER
FSS: SAINT PETERSBURG FLIGHT SERVICE STATION
Attendance: CONTINUOUS
Segmented circle: no

Heliport Communications

WX ASOS at SFB (3 nm SE): PHONE 407-321-9384
WX AWOS-3 at DED (15 nm N): 119.575 (386-740-5811)
WX ASOS at ORL (16 nm S): PHONE 407-658-6753

Nearby radio navigation aids

VOR radial/distance  VOR name  Freq  Var
ORLr009/16.5ORLANDO VORTAC112.2000E
OMNr197/30.7ORMOND BEACH VORTAC112.6000E

Heliport Services

Runway Information

Helipad H1

Dimensions: 40 x 40 ft. / 12 x 12 m
Surface: concrete
Latitude: 28-48.807167N
Longitude: 081-16.991167W
Elevation: 17.0 ft.
Traffic pattern: leftleft

Heliport Ownership and Management from official FAA records

Ownership: Privately-owned
Owner: CENTRAL FLORIDA REGIONAL HOSPITAL
1401 WEST SEMINOLE BLVD
SANFORD, FL 32771
Phone 407-321-4500
Manager: TREY ABSHIER, CEO
1401 WEST SEMINOLE BLVD
SANFORD, FL 32771
Phone 407-321-4500
TREY ABSHIER, CEO - EXT 7392

Additional Remarks

FOR CD CTC ORLANDO APCH AT 407-852-7553.

Instrument Procedures

There are no published instrument procedures at 2FA8.

Some nearby airports with instrument procedures:

KSFB - Orlando Sanford International Airport (3 nm SE)
KDED - DeLand Municipal Airport-Sidney H Taylor Field (15 nm N)
KORL - Executive Airport (16 nm S)
X04 - Orlando Apopka Airport (17 nm W)
X23 - Umatilla Municipal Airport (20 nm W)
 
Loc | Ops | Rwys | IFR | FBO | Links
Com | Nav | Svcs | Stats | Notes


 
Area around 2FA8 (Central Florida Regional Hospital Heliport)
 
Road maps at: MapQuest Bing Google
 
Aerial photo
WARNING: Photo may not be current or correct
Aerial photo of 2FA8 (Central Florida Regional Hospital Heliport)
Photo by Don F. Pease
Photo taken 14-Jun-2005
looking west.

Do you have a better or more recent aerial photo of Central Florida Regional Hospital Heliport that you would like to share? If so, please send us your photo.

 
Sectional chart

 
Airport distance calculator
Flying to Central Florida Regional Hospital Heliport? Find the distance to fly.

From to 2FA8

Sunrise and sunset
Times for 23-Jan-2020
 Local
(UTC-5)
 Zulu
(UTC)
Morning civil twilight06:5311:53
Sunrise07:1912:19
Sunset17:5622:56
Evening civil twilight18:2123:21

Current date and time
Zulu (UTC)  24-Jan-2020 00:14:45
Local (UTC-5)  23-Jan-2020 19:14:45
 
METAR
KSFB 
5nm SE 
232353Z 34004KT 10SM OVC065 17/16 A3007 RMK AO2 SLP181 60001 T01670156 10200 20167 55000
KDED 
15nm N 
232355Z AUTO 01005KT 10SM SCT044 SCT065 OVC075 17/14 A3007 RMK AO2
KORL 
16nm S 
232353Z 07003KT 10SM OVC055 17/16 A3006 RMK AO2 SLP184 60006 T01720156 10211 20172 55001
TAF
KSFB 
5nm SE 
231959Z 2320/2418 06011KT P6SM VCSH FEW025 BKN035 BKN050 TEMPO 2320/2321 1 1/2SM -RA BR BKN025 FM240000 08007KT P6SM SCT035 BKN060 BKN100 FM241500 18007KT P6SM SCT050 SCT120 BKN250
NOTAMs
Click for the latest NOTAMs
NOTAMs are issued by the DoD/FAA and will open in a separate window not controlled by AirNav.

 

 
 

Would you like to see your business listed on this page?

 If your business provides an interesting product or service to pilots, flight crews, aircraft, or users of the Central Florida Regional Hospital Heliport, you should consider listing it here.  To start the listing process, click on the button below
 
Add a business
 

Other Pages about Central Florida Regional Hospital Heliport

Update a link
 
Copyright © AirNav, LLC. All rights reserved. Privacy Policy  Contact